createdAt,value
2019-02-04T00:00:35.052Z,12.37
2019-02-04T00:03:16.292Z,11.07
2019-02-04T00:05:45.632Z,10.63
2019-02-04T00:08:15.061Z,10.73
2019-02-04T00:10:44.741Z,9.53
2019-02-04T00:13:14.541Z,10.17
2019-02-04T00:15:43.872Z,8.70
2019-02-04T00:18:12.931Z,11.17
2019-02-04T00:20:41.834Z,10.07
2019-02-04T00:23:10.699Z,8.97
2019-02-04T00:25:39.845Z,9.93
2019-02-04T00:28:08.781Z,8.67
2019-02-04T00:30:37.659Z,11.07
2019-02-04T00:33:06.642Z,10.33
2019-02-04T00:35:35.645Z,10.07
2019-02-04T00:38:04.629Z,10.87
2019-02-04T00:40:33.767Z,9.53
2019-02-04T00:43:02.618Z,9.97
2019-02-04T00:45:31.584Z,10.53
2019-02-04T00:48:00.417Z,10.60
2019-02-04T00:50:33.134Z,11.07
2019-02-04T00:53:02.311Z,10.10
2019-02-04T00:55:31.642Z,12.30
2019-02-04T00:58:01.033Z,10.07
2019-02-04T01:00:31.342Z,11.57
2019-02-04T01:03:00.721Z,8.23
2019-02-04T01:05:29.807Z,10.27
2019-02-04T01:07:59.105Z,11.63
2019-02-04T01:10:31.628Z,7.73
2019-02-04T01:13:00.695Z,10.43
2019-02-04T01:15:29.655Z,9.43
2019-02-04T01:17:58.531Z,10.43
2019-02-04T01:20:31.537Z,15.10
2019-02-04T01:23:00.469Z,12.93
2019-02-04T01:25:29.550Z,12.17
2019-02-04T01:27:58.495Z,10.90
2019-02-04T01:30:27.434Z,11.60
2019-02-04T01:32:56.362Z,10.87
2019-02-04T01:35:25.708Z,10.43
2019-02-04T01:37:59.306Z,9.80
2019-02-04T01:40:38.723Z,11.37
2019-02-04T01:43:29.058Z,10.70
2019-02-04T01:45:57.999Z,9.83
2019-02-04T01:48:26.895Z,10.53
2019-02-04T01:50:55.799Z,10.53
2019-02-04T01:53:24.765Z,10.60
2019-02-04T01:55:53.740Z,10.60
2019-02-04T01:58:22.915Z,10.90
2019-02-04T02:00:51.861Z,10.57
2019-02-04T02:03:20.735Z,10.50
2019-02-04T02:05:49.630Z,10.40
2019-02-04T02:08:18.491Z,9.43
2019-02-04T02:10:47.459Z,9.73
2019-02-04T02:13:16.525Z,9.53
2019-02-04T02:15:45.463Z,9.17
2019-02-04T02:18:14.438Z,9.57
2019-02-04T02:20:43.364Z,8.23
2019-02-04T02:23:12.250Z,9.37
2019-02-04T02:25:41.157Z,8.50
2019-02-04T02:28:10.022Z,10.00
2019-02-04T02:30:48.512Z,9.70
2019-02-04T02:33:17.586Z,7.77
2019-02-04T02:35:46.489Z,9.37
2019-02-04T02:38:15.390Z,9.57
2019-02-04T02:40:44.509Z,9.90
2019-02-04T02:43:13.405Z,8.80
2019-02-04T02:45:42.261Z,9.43
2019-02-04T02:48:11.311Z,9.47
2019-02-04T02:50:40.187Z,9.57
2019-02-04T02:53:09.138Z,8.30
2019-02-04T02:55:38.383Z,9.93
2019-02-04T02:58:07.281Z,7.53
2019-02-04T03:00:36.151Z,8.70
2019-02-04T03:03:05.145Z,9.20
2019-02-04T03:05:34.100Z,10.60
2019-02-04T03:08:02.931Z,8.67
2019-02-04T03:10:32.167Z,8.73
2019-02-04T03:13:01.124Z,9.40
2019-02-04T03:15:30.069Z,9.57
2019-02-04T03:18:07.175Z,11.60
2019-02-04T03:20:45.137Z,8.23
2019-02-04T03:23:14.095Z,7.70
2019-02-04T03:25:43.009Z,8.40
2019-02-04T03:28:11.953Z,7.90
2019-02-04T03:30:40.961Z,8.77
2019-02-04T03:33:09.846Z,8.70
2019-02-04T03:35:38.682Z,7.60
2019-02-04T03:38:07.585Z,7.53
2019-02-04T03:40:36.569Z,8.43
2019-02-04T03:43:05.424Z,7.50
2019-02-04T03:45:34.369Z,6.97
2019-02-04T03:48:07.015Z,7.97
2019-02-04T03:50:33.715Z,9.77
2019-02-04T03:53:02.661Z,8.67
2019-02-04T03:55:31.560Z,9.70
2019-02-04T03:58:00.541Z,9.37
2019-02-04T04:00:34.598Z,10.10
2019-02-04T04:03:03.609Z,10.40
2019-02-04T04:05:32.502Z,8.60
2019-02-04T04:08:10.361Z,9.83
2019-02-04T04:10:39.832Z,8.33
2019-02-04T04:13:09.042Z,9.07
2019-02-04T04:15:38.232Z,9.20
2019-02-04T04:18:15.343Z,10.10
2019-02-04T04:20:38.282Z,9.50
2019-02-04T04:23:08.222Z,10.23
2019-02-04T04:25:37.212Z,10.33
2019-02-04T04:28:06.503Z,9.27
2019-02-04T04:30:35.831Z,9.03
2019-02-04T04:33:04.892Z,9.23
2019-02-04T04:35:34.131Z,9.37
2019-02-04T04:38:03.225Z,9.10
2019-02-04T04:40:32.352Z,9.53
2019-02-04T04:43:01.250Z,9.63
2019-02-04T04:45:30.490Z,9.03
2019-02-04T04:47:59.378Z,9.30
2019-02-04T04:50:28.248Z,8.63
2019-02-04T04:52:57.153Z,10.07
2019-02-04T04:55:28.428Z,8.90
2019-02-04T04:57:57.755Z,9.60
2019-02-04T05:00:31.762Z,7.60
2019-02-04T05:03:01.124Z,8.57
2019-02-04T05:05:30.562Z,7.30
2019-02-04T05:07:59.821Z,8.10
2019-02-04T05:10:28.994Z,10.00
2019-02-04T05:12:58.312Z,9.40
2019-02-04T05:15:28.771Z,8.20
2019-02-04T05:17:58.381Z,10.70
2019-02-04T05:20:27.451Z,8.33
2019-02-04T05:22:56.762Z,8.00
2019-02-04T05:25:26.053Z,9.23
2019-02-04T05:27:55.431Z,8.87
2019-02-04T05:30:25.934Z,8.40
2019-02-04T05:32:55.162Z,9.03
2019-02-04T05:35:24.333Z,9.27
2019-02-04T05:37:53.572Z,10.63
2019-02-04T05:40:22.891Z,8.67
2019-02-04T05:43:02.716Z,7.97
2019-02-04T05:45:31.608Z,9.37
2019-02-04T05:48:00.555Z,8.37
2019-02-04T05:50:29.428Z,8.47
2019-02-04T05:52:58.333Z,9.77
2019-02-04T05:55:27.269Z,8.87
2019-02-04T05:57:56.219Z,10.03
2019-02-04T06:00:37.443Z,9.00
2019-02-04T06:03:06.471Z,9.33
2019-02-04T06:05:35.478Z,9.20
2019-02-04T06:08:04.740Z,8.93
2019-02-04T06:10:33.727Z,9.07
2019-02-04T06:13:02.614Z,8.90
2019-02-04T06:15:31.546Z,9.47
2019-02-04T06:18:00.503Z,11.87
2019-02-04T06:20:29.464Z,10.53
2019-02-04T06:22:58.358Z,9.43
2019-02-04T06:25:27.388Z,10.20
2019-02-04T06:27:56.363Z,10.67
2019-02-04T06:30:25.311Z,9.57
2019-02-04T06:32:54.217Z,9.70
2019-02-04T06:35:23.177Z,10.20
2019-02-04T06:37:52.172Z,9.80
2019-02-04T06:40:21.105Z,12.20
2019-02-04T06:42:50.123Z,11.17
2019-02-04T06:45:19.462Z,12.47
2019-02-04T06:47:48.333Z,12.13
2019-02-04T06:50:18.982Z,11.13
2019-02-04T06:52:47.917Z,10.03
2019-02-04T06:55:22.393Z,10.90
2019-02-04T06:57:51.325Z,11.07
2019-02-04T07:00:20.448Z,10.23
2019-02-04T07:02:49.359Z,11.07
2019-02-04T07:05:18.552Z,12.87
2019-02-04T07:07:47.510Z,11.97
2019-02-04T07:10:21.841Z,11.47
2019-02-04T07:12:50.789Z,13.33
2019-02-04T07:15:19.780Z,11.27
2019-02-04T07:17:49.141Z,12.57
2019-02-04T07:20:21.181Z,12.03
2019-02-04T07:22:50.571Z,14.33
2019-02-04T07:25:21.051Z,11.50
2019-02-04T07:27:49.995Z,13.63
2019-02-04T07:30:20.919Z,13.97
2019-02-04T07:32:50.155Z,11.70
2019-02-04T07:35:20.497Z,14.10
2019-02-04T07:37:49.810Z,11.90
2019-02-04T07:40:23.633Z,13.43
2019-02-04T07:42:53.590Z,12.90
2019-02-04T07:45:22.601Z,13.33
2019-02-04T07:47:51.821Z,12.87
2019-02-04T07:50:20.680Z,12.97
2019-02-04T07:52:49.695Z,12.30
2019-02-04T07:55:18.551Z,13.73
2019-02-04T07:57:47.461Z,12.23
2019-02-04T08:00:19.027Z,12.77
2019-02-04T08:02:47.996Z,10.83
2019-02-04T08:05:23.049Z,9.30
2019-02-04T08:07:52.045Z,11.13
2019-02-04T08:10:20.976Z,11.63
2019-02-04T08:13:00.604Z,10.37
2019-02-04T08:15:31.869Z,10.33
2019-02-04T08:18:00.728Z,11.40
2019-02-04T08:20:29.647Z,12.83
2019-02-04T08:22:58.546Z,13.23
2019-02-04T08:25:27.479Z,11.83
2019-02-04T08:27:56.652Z,11.70
2019-02-04T08:30:33.651Z,13.67
2019-02-04T08:33:02.792Z,12.13
2019-02-04T08:35:32.273Z,13.87
2019-02-04T08:38:01.387Z,13.33
2019-02-04T08:40:30.577Z,13.60
2019-02-04T08:43:00.190Z,11.70
2019-02-04T08:45:29.110Z,14.57
2019-02-04T08:47:58.013Z,11.87
2019-02-04T08:50:28.508Z,10.43
2019-02-04T08:52:57.411Z,10.37
2019-02-04T08:55:26.285Z,10.40
2019-02-04T08:57:55.722Z,12.47
2019-02-04T09:00:28.241Z,12.00
2019-02-04T09:02:57.176Z,11.83
2019-02-04T09:05:26.241Z,12.27
2019-02-04T09:07:55.199Z,11.93
2019-02-04T09:10:31.929Z,11.07
2019-02-04T09:13:01.086Z,13.20
2019-02-04T09:15:30.295Z,11.67
2019-02-04T09:17:59.168Z,10.20
2019-02-04T09:20:28.121Z,11.73
2019-02-04T09:22:57.110Z,11.13
2019-02-04T09:25:27.260Z,9.93
2019-02-04T09:27:57.523Z,10.87
2019-02-04T09:30:28.329Z,10.27
2019-02-04T09:32:59.111Z,14.50
2019-02-04T09:35:28.272Z,10.63
2019-02-04T09:37:57.289Z,10.67
2019-02-04T09:40:39.951Z,12.00
2019-02-04T09:43:09.461Z,12.30
2019-02-04T09:45:38.581Z,11.33
2019-02-04T09:48:10.991Z,10.23
2019-02-04T09:50:45.422Z,10.63
2019-02-04T09:53:15.031Z,11.93
2019-02-04T09:55:44.531Z,10.77
2019-02-04T09:58:13.681Z,9.23
2019-02-04T10:00:42.911Z,9.63
2019-02-04T10:03:12.101Z,11.40
2019-02-04T10:05:41.331Z,9.40
2019-02-04T10:08:10.632Z,10.50
2019-02-04T10:10:39.834Z,10.10
2019-02-04T10:13:09.292Z,13.27
2019-02-04T10:15:41.396Z,10.47
2019-02-04T10:18:11.431Z,10.47
2019-02-04T10:20:40.906Z,9.77
2019-02-04T10:23:10.726Z,11.00
2019-02-04T10:25:42.559Z,10.00
2019-02-04T10:28:18.112Z,11.47
2019-02-04T10:30:47.787Z,11.53
2019-02-04T10:33:17.097Z,9.27
2019-02-04T10:35:46.102Z,10.90
2019-02-04T10:38:16.454Z,10.20
2019-02-04T10:40:45.742Z,10.97
2019-02-04T10:43:14.777Z,11.13
2019-02-04T10:45:43.814Z,9.23
2019-02-04T10:48:12.799Z,9.07
2019-02-04T10:50:46.906Z,10.53
2019-02-04T10:53:12.999Z,9.63
2019-02-04T10:55:42.010Z,11.33
2019-02-04T10:58:13.097Z,11.13
2019-02-04T11:00:42.722Z,11.90
2019-02-04T11:03:11.661Z,8.90
2019-02-04T11:05:42.246Z,11.10
2019-02-04T11:08:13.172Z,8.40
2019-02-04T11:10:42.648Z,8.50
2019-02-04T11:13:16.610Z,12.27
2019-02-04T11:15:48.517Z,7.90
2019-02-04T11:18:17.761Z,8.47
2019-02-04T11:20:57.917Z,9.93
2019-02-04T11:23:17.530Z,9.90
2019-02-04T11:25:46.526Z,9.20
2019-02-04T11:28:16.119Z,9.80
2019-02-04T11:30:50.725Z,12.17
2019-02-04T11:33:19.941Z,9.97
2019-02-04T11:35:48.980Z,12.20
2019-02-04T11:38:17.995Z,10.37
2019-02-04T11:40:47.097Z,9.23
2019-02-04T11:43:16.046Z,9.23
2019-02-04T11:45:45.119Z,7.70
2019-02-04T11:48:16.256Z,5.63
2019-02-04T11:50:45.284Z,7.47
2019-02-04T11:53:14.201Z,7.33
2019-02-04T11:55:43.111Z,8.23
2019-02-04T11:58:12.147Z,7.93
2019-02-04T12:00:41.129Z,7.80
2019-02-04T12:03:18.966Z,7.63
2019-02-04T12:05:48.562Z,10.03
2019-02-04T12:08:17.791Z,7.83
2019-02-04T12:10:50.102Z,7.53
2019-02-04T12:13:19.582Z,8.00
2019-02-04T12:15:48.932Z,8.27
2019-02-04T12:18:18.851Z,9.97
2019-02-04T12:20:48.781Z,8.90
2019-02-04T12:23:18.367Z,8.83
2019-02-04T12:25:47.702Z,7.97
2019-02-04T12:28:17.062Z,10.67
2019-02-04T12:30:46.282Z,10.07
2019-02-04T12:33:16.631Z,12.27
2019-02-04T12:35:46.429Z,12.10
2019-02-04T12:38:15.931Z,9.37
2019-02-04T12:40:45.041Z,8.13
2019-02-04T12:43:14.231Z,8.07
2019-02-04T12:45:44.763Z,9.63
2019-02-04T12:48:14.212Z,8.87
2019-02-04T12:50:44.564Z,7.53
2019-02-04T12:53:13.848Z,6.83
2019-02-04T12:55:42.709Z,7.13
2019-02-04T12:58:11.846Z,7.70
2019-02-04T13:00:40.923Z,7.20
2019-02-04T13:03:09.880Z,6.77
2019-02-04T13:05:44.082Z,8.33
2019-02-04T13:08:13.517Z,7.57
2019-02-04T13:10:42.623Z,7.63
2019-02-04T13:13:14.176Z,6.63
2019-02-04T13:15:43.068Z,8.80
2019-02-04T13:18:12.166Z,7.50
2019-02-04T13:20:41.527Z,8.53
2019-02-04T13:23:10.495Z,7.93
2019-02-04T13:25:39.368Z,7.00
2019-02-04T13:28:12.603Z,6.30
2019-02-04T13:30:41.425Z,8.47
2019-02-04T13:33:10.307Z,6.27
2019-02-04T13:35:39.497Z,8.50
2019-02-04T13:38:08.417Z,7.83
2019-02-04T13:40:37.349Z,5.90
2019-02-04T13:43:06.841Z,6.27
2019-02-04T13:45:35.757Z,8.47
2019-02-04T13:48:08.406Z,8.67
2019-02-04T13:50:36.227Z,5.97
2019-02-04T13:53:05.623Z,5.97
2019-02-04T13:55:36.267Z,6.87
2019-02-04T13:58:06.689Z,6.63
2019-02-04T14:00:36.868Z,6.23
2019-02-04T14:03:07.094Z,6.07
2019-02-04T14:05:36.100Z,7.20
2019-02-04T14:08:05.799Z,6.13
2019-02-04T14:10:42.608Z,6.33
2019-02-04T14:13:11.662Z,8.30
2019-02-04T14:15:41.016Z,6.60
2019-02-04T14:18:11.015Z,8.00
2019-02-04T14:20:39.869Z,9.13
2019-02-04T14:23:08.837Z,7.53
2019-02-04T14:25:38.091Z,6.63
2019-02-04T14:28:07.817Z,8.37
2019-02-04T14:30:38.833Z,8.80
2019-02-04T14:33:08.203Z,9.47
2019-02-04T14:35:37.732Z,7.37
2019-02-04T14:38:07.822Z,8.93
2019-02-04T14:40:37.421Z,7.30
2019-02-04T14:43:13.131Z,7.13
2019-02-04T14:46:07.932Z,7.33
2019-02-04T14:48:51.771Z,6.10
2019-02-04T14:51:41.831Z,8.13
2019-02-04T14:54:38.087Z,11.97
2019-02-04T14:57:09.841Z,7.87
2019-02-04T14:59:41.931Z,7.50
2019-02-04T15:02:28.902Z,9.20
2019-02-04T15:05:03.582Z,7.97
2019-02-04T15:07:52.102Z,7.90
2019-02-04T15:10:24.311Z,7.67
2019-02-04T15:13:18.202Z,8.37
2019-02-04T15:16:06.144Z,8.20
2019-02-04T15:18:46.816Z,9.87
2019-02-04T15:21:21.469Z,5.73
2019-02-04T15:24:08.974Z,6.90
2019-02-04T15:27:08.248Z,4.93
2019-02-04T15:29:46.845Z,7.23
2019-02-04T15:32:29.621Z,8.00
2019-02-04T15:35:10.161Z,5.33
2019-02-04T15:38:01.448Z,6.90
2019-02-04T15:40:36.030Z,5.13
2019-02-04T15:43:17.031Z,4.43
2019-02-04T15:46:05.642Z,4.90
2019-02-04T15:48:38.151Z,7.73
2019-02-04T15:51:22.493Z,6.67
2019-02-04T15:53:52.632Z,5.20
2019-02-04T15:56:22.042Z,4.73
2019-02-04T15:58:52.251Z,4.57
2019-02-04T16:01:21.972Z,3.67
2019-02-04T16:03:51.881Z,5.67
2019-02-04T16:06:21.427Z,3.83
2019-02-04T16:08:51.291Z,4.13
2019-02-04T16:11:20.544Z,3.37
2019-02-04T16:13:49.831Z,7.43
2019-02-04T16:16:19.151Z,4.83
2019-02-04T16:18:48.671Z,4.47
2019-02-04T16:21:18.001Z,3.93
2019-02-04T16:23:47.691Z,5.07
2019-02-04T16:26:16.731Z,5.30
2019-02-04T16:28:46.101Z,3.23
2019-02-04T16:31:15.442Z,3.53
2019-02-04T16:33:45.032Z,4.60
2019-02-04T16:36:14.462Z,4.03
2019-02-04T16:38:45.273Z,2.90
2019-02-04T16:41:14.662Z,2.80
2019-02-04T16:43:45.364Z,5.27
2019-02-04T16:46:14.211Z,3.33
2019-02-04T16:48:43.079Z,3.53
2019-02-04T16:51:12.087Z,5.03
2019-02-04T16:53:41.555Z,3.07
2019-02-04T16:56:11.024Z,3.60
2019-02-04T16:58:40.222Z,5.33
2019-02-04T17:01:09.652Z,4.33
2019-02-04T17:03:39.052Z,3.40
2019-02-04T17:06:09.222Z,4.00
2019-02-04T17:08:38.440Z,2.90
2019-02-04T17:11:08.302Z,5.30
2019-02-04T17:13:37.543Z,3.50
2019-02-04T17:16:06.926Z,3.80
2019-02-04T17:18:36.451Z,2.80
2019-02-04T17:21:06.221Z,2.73
2019-02-04T17:23:35.482Z,2.50
2019-02-04T17:26:05.063Z,3.17
2019-02-04T17:28:34.582Z,3.27
2019-02-04T17:31:03.882Z,2.83
2019-02-04T17:33:33.501Z,3.33
2019-02-04T17:36:03.202Z,2.90
2019-02-04T17:38:32.583Z,3.93
2019-02-04T17:41:02.143Z,4.70
2019-02-04T17:43:31.811Z,2.97
2019-02-04T17:46:01.172Z,2.13
2019-02-04T17:48:30.604Z,3.13
2019-02-04T17:51:00.414Z,4.83
2019-02-04T17:53:34.205Z,3.80
2019-02-04T17:56:01.333Z,4.33
2019-02-04T17:58:30.798Z,4.13
2019-02-04T18:01:00.543Z,5.33
2019-02-04T18:03:29.887Z,4.67
2019-02-04T18:05:59.593Z,5.07
2019-02-04T18:08:28.874Z,4.23
2019-02-04T18:11:00.162Z,5.73
2019-02-04T18:13:29.393Z,3.23
2019-02-04T18:15:58.733Z,3.97
2019-02-04T18:18:32.372Z,3.23
2019-02-04T18:21:02.118Z,4.20
2019-02-04T18:23:48.221Z,4.93
2019-02-04T18:26:14.943Z,4.97
2019-02-04T18:28:47.689Z,4.97
2019-02-04T18:31:15.623Z,4.30
2019-02-04T18:33:45.193Z,3.80
2019-02-04T18:36:14.493Z,3.73
2019-02-04T18:38:43.803Z,4.47
2019-02-04T18:41:13.343Z,4.43
2019-02-04T18:43:42.763Z,5.73
2019-02-04T18:46:12.212Z,4.17
2019-02-04T18:48:43.284Z,4.43
2019-02-04T18:51:12.684Z,3.73
2019-02-04T18:53:41.995Z,4.43
2019-02-04T18:56:12.173Z,5.70
2019-02-04T18:58:41.633Z,4.50
2019-02-04T19:01:10.993Z,5.60
2019-02-04T19:03:40.553Z,3.87
2019-02-04T19:06:10.293Z,4.27
2019-02-04T19:08:39.803Z,3.43
2019-02-04T19:11:09.663Z,7.30
2019-02-04T19:13:39.123Z,5.53
2019-02-04T19:16:08.523Z,4.57
2019-02-04T19:18:37.952Z,4.47
2019-02-04T19:21:08.372Z,4.60
2019-02-04T19:23:38.163Z,4.80
2019-02-04T19:26:07.533Z,5.73
2019-02-04T19:28:37.044Z,5.87
2019-02-04T19:31:09.772Z,4.70
2019-02-04T19:33:39.143Z,4.63
2019-02-04T19:36:08.843Z,4.50
2019-02-04T19:38:38.723Z,4.80
2019-02-04T19:41:08.323Z,5.07
2019-02-04T19:43:37.632Z,5.50
2019-02-04T19:46:07.462Z,5.53
2019-02-04T19:48:37.352Z,5.87
2019-02-04T19:51:06.893Z,4.80
2019-02-04T19:53:36.713Z,4.83
2019-02-04T19:56:06.193Z,4.83
2019-02-04T19:58:35.543Z,7.00
2019-02-04T20:01:05.103Z,5.93
2019-02-04T20:03:37.029Z,5.73
2019-02-04T20:06:06.473Z,5.47
2019-02-04T20:08:36.032Z,5.50
2019-02-04T20:11:05.945Z,5.57
2019-02-04T20:13:35.243Z,4.07
2019-02-04T20:16:04.826Z,4.10
2019-02-04T20:18:33.711Z,3.83
2019-02-04T20:21:02.722Z,4.47
2019-02-04T20:23:32.072Z,4.47
2019-02-04T20:26:01.149Z,4.23
2019-02-04T20:28:30.171Z,3.37
2019-02-04T20:30:59.068Z,3.63
2019-02-04T20:33:28.055Z,4.57
2019-02-04T20:35:57.015Z,4.30
2019-02-04T20:38:27.326Z,7.90
2019-02-04T20:40:56.561Z,6.23
2019-02-04T20:43:30.047Z,3.07
2019-02-04T20:45:59.059Z,5.13
2019-02-04T20:48:27.996Z,5.47
2019-02-04T20:50:59.963Z,6.07
2019-02-04T20:53:27.453Z,5.77
2019-02-04T20:55:56.491Z,4.97
2019-02-04T20:58:25.571Z,5.67
2019-02-04T21:00:56.075Z,3.90
2019-02-04T21:03:24.929Z,5.03
2019-02-04T21:05:54.075Z,5.57
2019-02-04T21:08:23.431Z,5.23
2019-02-04T21:10:52.378Z,5.30
2019-02-04T21:13:21.426Z,5.77
2019-02-04T21:15:50.317Z,5.97
2019-02-04T21:18:19.443Z,4.33
2019-02-04T21:20:48.315Z,4.93
2019-02-04T21:23:17.609Z,4.53
2019-02-04T21:25:46.659Z,4.80
2019-02-04T21:28:15.740Z,4.37
2019-02-04T21:30:46.197Z,3.67
2019-02-04T21:33:15.107Z,5.40
2019-02-04T21:35:44.251Z,5.20
2019-02-04T21:38:13.590Z,4.83
2019-02-04T21:40:42.610Z,4.93
2019-02-04T21:43:11.603Z,6.03
2019-02-04T21:45:40.554Z,4.13
2019-02-04T21:48:09.690Z,4.00
2019-02-04T21:50:38.595Z,7.00
2019-02-04T21:53:07.938Z,5.27
2019-02-04T21:55:36.975Z,5.43
2019-02-04T21:58:07.161Z,5.40
2019-02-04T22:00:38.243Z,4.67
2019-02-04T22:03:07.403Z,5.30
2019-02-04T22:05:36.499Z,6.43
2019-02-04T22:08:06.324Z,4.57
2019-02-04T22:10:35.193Z,5.00
2019-02-04T22:13:04.135Z,4.73
2019-02-04T22:15:33.539Z,5.97
2019-02-04T22:18:11.959Z,5.87
2019-02-04T22:20:43.831Z,5.10
2019-02-04T22:23:13.121Z,6.83
2019-02-04T22:25:42.941Z,5.53
2019-02-04T22:28:12.521Z,4.63
2019-02-04T22:30:41.922Z,7.60
2019-02-04T22:33:11.191Z,7.27
2019-02-04T22:35:40.324Z,6.57
2019-02-04T22:38:09.651Z,6.87
2019-02-04T22:40:38.942Z,6.80
2019-02-04T22:43:07.891Z,9.60
2019-02-04T22:45:37.261Z,8.17
2019-02-04T22:48:06.622Z,5.53
2019-02-04T22:50:35.702Z,6.00
2019-02-04T22:53:05.222Z,7.30
2019-02-04T22:55:34.651Z,6.43
2019-02-04T22:58:04.062Z,7.57
2019-02-04T23:00:42.948Z,7.17
2019-02-04T23:03:12.995Z,8.40
2019-02-04T23:05:41.890Z,9.47
2019-02-04T23:08:11.462Z,9.83
2019-02-04T23:10:40.631Z,6.83
2019-02-04T23:13:09.942Z,8.87
2019-02-04T23:15:39.391Z,7.03
2019-02-04T23:18:09.181Z,9.37
2019-02-04T23:20:38.451Z,7.80
2019-02-04T23:23:07.693Z,7.97
2019-02-04T23:25:43.531Z,9.90
2019-02-04T23:28:08.082Z,8.97
2019-02-04T23:30:37.481Z,6.87
2019-02-04T23:33:06.933Z,7.50
2019-02-04T23:35:36.351Z,11.13
2019-02-04T23:38:06.821Z,8.27
2019-02-04T23:40:36.632Z,8.70
2019-02-04T23:43:06.563Z,8.77
2019-02-04T23:45:35.631Z,6.83
2019-02-04T23:48:05.482Z,7.37
2019-02-04T23:50:34.652Z,8.47
2019-02-04T23:53:04.055Z,7.20
2019-02-04T23:55:33.292Z,9.37
2019-02-04T23:58:02.682Z,7.80
